Time;durP1;ratioP1;P1;durP2;ratioP2;P2;SDS_P1;SDS_P2;PMS_P1;PMS_P2;Temp;Humidity;BMP_temperature;BMP_pressure;BME280_temperature;BME280_humidity;BME280_pressure;Samples;Min_cycle;Max_cycle;Signal;HPM_P1;HPM_P2
2023/11/13 00:00:49;;;;;;;9.82;6.40;;;4.40;99.90;;;;;;5044209;28;20032;-82
2023/11/13 00:03:15;;;;;;;9.88;6.28;;;4.40;99.90;;;;;;5045203;28;20102;-78
2023/11/13 00:05:41;;;;;;;9.55;5.97;;;4.30;99.90;;;;;;5043701;28;20408;-82
2023/11/13 00:08:06;;;;;;;9.73;6.55;;;4.30;99.90;;;;;;5055602;28;20036;-80
2023/11/13 00:10:33;;;;;;;8.68;6.40;;;4.30;99.90;;;;;;5053900;28;20040;-80
2023/11/13 00:13:02;;;;;;;9.98;6.68;;;4.30;99.90;;;;;;5036139;28;20029;-81
2023/11/13 00:15:28;;;;;;;9.05;6.57;;;4.30;99.90;;;;;;5050811;28;20036;-80
2023/11/13 00:17:54;;;;;;;10.45;6.57;;;4.30;99.90;;;;;;5047371;28;20468;-79
2023/11/13 00:20:20;;;;;;;11.68;7.30;;;4.30;99.90;;;;;;5042173;28;20033;-80
2023/11/13 00:22:46;;;;;;;9.18;6.47;;;4.30;99.90;;;;;;5043627;28;20805;-80
2023/11/13 00:25:12;;;;;;;9.40;7.38;;;4.30;99.90;;;;;;5048607;28;20028;-80
2023/11/13 00:27:38;;;;;;;9.20;7.03;;;4.30;99.90;;;;;;5050484;28;20037;-79
2023/11/13 00:30:06;;;;;;;10.15;7.25;;;4.30;99.90;;;;;;5048985;28;20480;-80
2023/11/13 00:32:35;;;;;;;13.77;7.78;;;4.30;99.90;;;;;;5050165;28;20071;-79
2023/11/13 00:35:01;;;;;;;12.15;7.78;;;4.30;99.90;;;;;;5063532;28;20555;-81
2023/11/13 00:37:27;;;;;;;13.55;8.02;;;4.30;99.90;;;;;;5041832;28;20112;-80
2023/11/13 00:39:53;;;;;;;12.63;8.70;;;4.30;99.90;;;;;;5040209;28;20127;-81
2023/11/13 00:42:20;;;;;;;10.63;7.78;;;4.20;99.90;;;;;;5036695;28;20087;-81
2023/11/13 00:44:45;;;;;;;12.10;8.32;;;4.20;99.90;;;;;;5047198;28;20103;-80
2023/11/13 00:47:11;;;;;;;13.13;8.20;;;4.20;99.90;;;;;;5046306;28;20026;-80
2023/11/13 00:49:38;;;;;;;11.40;8.60;;;4.20;99.90;;;;;;5048628;28;20017;-79
2023/11/13 00:52:04;;;;;;;14.40;9.10;;;4.20;99.90;;;;;;5045398;28;20037;-80
2023/11/13 00:54:30;;;;;;;15.23;8.35;;;4.20;99.90;;;;;;5048707;28;20029;-80
2023/11/13 00:56:56;;;;;;;11.55;7.55;;;4.10;99.90;;;;;;5043463;28;20037;-79
2023/11/13 00:59:23;;;;;;;15.20;8.20;;;4.10;99.90;;;;;;5046189;28;20059;-81
2023/11/13 01:01:48;;;;;;;12.95;8.57;;;4.00;99.90;;;;;;5058712;28;20032;-82
2023/11/13 01:04:15;;;;;;;10.70;8.23;;;4.00;99.90;;;;;;5049286;28;20039;-81
2023/11/13 01:07:00;;;;;;;12.98;8.13;;;4.00;99.90;;;;;;5044598;28;20048;-82
2023/11/13 01:09:25;;;;;;;12.52;8.52;;;4.00;99.90;;;;;;5056287;28;20044;-80
2023/11/13 01:11:52;;;;;;;12.60;8.35;;;3.90;99.90;;;;;;5050684;28;20568;-81
2023/11/13 01:14:19;;;;;;;12.27;8.82;;;3.90;99.90;;;;;;5051149;28;20075;-79
2023/11/13 01:16:45;;;;;;;12.00;8.23;;;3.90;99.90;;;;;;5057500;28;20220;-79
2023/11/13 01:19:11;;;;;;;12.98;9.00;;;3.90;99.90;;;;;;5046676;28;20044;-80
2023/11/13 01:21:37;;;;;;;13.50;9.35;;;3.80;99.90;;;;;;5045059;28;20039;-79
2023/11/13 01:24:03;;;;;;;13.95;8.82;;;3.80;99.90;;;;;;5048081;28;20025;-80
2023/11/13 01:26:29;;;;;;;12.95;8.63;;;3.80;99.90;;;;;;5053348;28;20045;-79
2023/11/13 01:28:55;;;;;;;16.65;10.75;;;3.70;99.90;;;;;;5044021;28;20040;-80
2023/11/13 01:31:21;;;;;;;14.13;9.85;;;3.70;99.90;;;;;;5050751;28;20042;-80
2023/11/13 01:33:47;;;;;;;20.85;11.63;;;3.70;99.90;;;;;;5054966;28;20134;-80
2023/11/13 01:36:12;;;;;;;16.67;10.85;;;3.70;99.90;;;;;;5048352;28;20238;-81
2023/11/13 01:38:38;;;;;;;17.10;10.35;;;3.80;99.90;;;;;;5059725;28;20673;-79
2023/11/13 01:41:05;;;;;;;16.75;10.15;;;3.80;99.90;;;;;;5053988;28;20033;-80
2023/11/13 01:43:31;;;;;;;15.23;10.25;;;3.80;99.90;;;;;;5049594;28;20049;-79
2023/11/13 01:45:58;;;;;;;19.20;11.50;;;3.80;99.90;;;;;;5047378;28;20053;-80
2023/11/13 01:48:25;;;;;;;17.02;11.40;;;3.80;99.90;;;;;;5048141;28;20037;-79
2023/11/13 01:50:52;;;;;;;19.58;10.48;;;3.80;99.90;;;;;;5053828;28;20033;-81
2023/11/13 01:53:23;;;;;;;19.20;11.07;;;3.70;99.90;;;;;;5057089;28;20026;-78
2023/11/13 01:55:52;;;;;;;15.85;10.23;;;3.70;99.90;;;;;;5052005;28;21022;-81
2023/11/13 01:58:18;;;;;;;15.90;10.45;;;3.70;99.90;;;;;;5045727;28;20037;-80
2023/11/13 02:00:46;;;;;;;18.92;11.45;;;3.60;99.90;;;;;;5053539;28;20044;-81
2023/11/13 02:03:14;;;;;;;16.33;10.15;;;3.60;99.90;;;;;;5056483;28;20037;-79
2023/11/13 02:05:42;;;;;;;15.68;9.70;;;3.60;99.90;;;;;;5045969;28;20033;-78
2023/11/13 02:08:08;;;;;;;17.00;10.55;;;3.60;99.90;;;;;;5052847;28;20037;-80
2023/11/13 02:10:35;;;;;;;15.13;9.52;;;3.60;99.90;;;;;;5049989;28;20029;-80
2023/11/13 02:13:04;;;;;;;15.88;10.57;;;3.60;99.90;;;;;;5043976;28;20045;-80
2023/11/13 02:15:31;;;;;;;15.10;9.77;;;3.60;99.90;;;;;;5053374;28;20033;-80
2023/11/13 02:18:04;;;;;;;14.07;9.50;;;3.60;99.90;;;;;;5046303;28;20072;-81
2023/11/13 02:20:31;;;;;;;16.33;9.77;;;3.60;99.90;;;;;;5045696;28;20033;-81
2023/11/13 02:22:59;;;;;;;12.05;8.93;;;3.60;99.90;;;;;;5049627;28;20049;-80
2023/11/13 02:25:25;;;;;;;13.02;8.82;;;3.60;99.90;;;;;;5054522;28;20032;-78
2023/11/13 02:27:57;;;;;;;14.02;8.70;;;3.60;99.90;;;;;;5059212;28;20102;-79
2023/11/13 02:30:23;;;;;;;12.55;9.15;;;3.60;99.90;;;;;;5065427;28;20037;-80
2023/11/13 02:32:49;;;;;;;13.57;8.77;;;3.60;99.90;;;;;;5053527;28;20025;-79
2023/11/13 02:35:18;;;;;;;12.95;9.23;;;3.60;99.90;;;;;;5054613;28;20037;-79
2023/11/13 02:37:44;;;;;;;16.42;10.05;;;3.60;99.90;;;;;;5059633;28;20046;-81
2023/11/13 02:40:11;;;;;;;14.95;9.95;;;3.60;99.90;;;;;;5047071;28;20053;-80
2023/11/13 02:42:41;;;;;;;14.20;9.35;;;3.60;99.90;;;;;;5043341;28;20063;-80
2023/11/13 02:45:08;;;;;;;15.57;9.55;;;3.70;99.90;;;;;;5053868;28;20037;-79
2023/11/13 02:47:34;;;;;;;14.15;9.95;;;3.60;99.90;;;;;;5061228;28;20085;-81
2023/11/13 02:50:02;;;;;;;16.75;9.65;;;3.50;99.90;;;;;;5054171;28;20096;-80
2023/11/13 02:52:28;;;;;;;16.20;9.85;;;3.40;99.90;;;;;;5058251;28;20056;-79
2023/11/13 02:54:54;;;;;;;16.50;9.93;;;3.40;99.90;;;;;;5058934;28;20489;-79
2023/11/13 02:57:20;;;;;;;13.98;9.63;;;3.50;99.90;;;;;;5065575;28;20045;-79
2023/11/13 02:59:46;;;;;;;16.30;10.38;;;3.50;99.90;;;;;;5055155;28;20037;-79
2023/11/13 03:02:12;;;;;;;23.05;12.07;;;3.50;99.90;;;;;;5037356;28;20033;-79
2023/11/13 03:04:39;;;;;;;21.98;12.90;;;3.40;99.90;;;;;;5052055;28;20091;-79
2023/11/13 03:07:04;;;;;;;19.95;12.38;;;3.40;99.90;;;;;;5048504;28;20208;-79
2023/11/13 03:09:30;;;;;;;22.27;12.45;;;3.40;99.90;;;;;;5049857;28;20093;-79
2023/11/13 03:11:57;;;;;;;21.10;12.27;;;3.40;99.90;;;;;;5061242;28;20093;-80
2023/11/13 03:14:22;;;;;;;21.08;12.65;;;3.30;99.90;;;;;;5051694;28;20029;-80
2023/11/13 03:16:48;;;;;;;19.65;12.13;;;3.30;99.90;;;;;;5053809;28;20131;-78
2023/11/13 03:19:14;;;;;;;21.30;11.65;;;3.20;99.90;;;;;;5044107;28;20199;-79
2023/11/13 03:21:40;;;;;;;18.27;10.93;;;3.30;99.90;;;;;;5055838;28;20029;-78
2023/11/13 03:24:06;;;;;;;19.50;12.50;;;3.30;99.90;;;;;;5051706;28;20072;-80
2023/11/13 03:26:32;;;;;;;19.88;11.80;;;3.30;99.90;;;;;;5056973;28;20078;-80
2023/11/13 03:28:58;;;;;;;20.38;12.07;;;3.30;99.90;;;;;;5052407;28;20115;-79
2023/11/13 03:31:24;;;;;;;20.88;11.77;;;3.20;99.90;;;;;;5048276;28;20044;-80
2023/11/13 03:33:51;;;;;;;20.70;11.77;;;3.30;99.90;;;;;;5056145;28;20359;-80
2023/11/13 03:36:16;;;;;;;23.27;12.85;;;3.30;99.90;;;;;;5055753;28;20124;-78
2023/11/13 03:38:42;;;;;;;19.58;12.55;;;3.20;99.90;;;;;;5040873;28;20168;-80
2023/11/13 03:41:08;;;;;;;21.42;12.50;;;3.20;99.90;;;;;;5034023;28;20055;-79
2023/11/13 03:43:35;;;;;;;19.63;12.10;;;3.20;99.90;;;;;;5054338;28;20029;-79
2023/11/13 03:46:02;;;;;;;22.70;13.20;;;3.30;99.90;;;;;;5050854;28;20029;-79
2023/11/13 03:48:28;;;;;;;21.48;13.77;;;3.30;99.90;;;;;;5048232;28;20088;-80
2023/11/13 03:50:54;;;;;;;22.02;13.10;;;3.30;99.90;;;;;;5061885;28;20055;-80
2023/11/13 03:53:21;;;;;;;24.35;14.60;;;3.30;99.90;;;;;;5052131;28;20033;-77
2023/11/13 03:55:47;;;;;;;22.35;12.98;;;3.30;99.90;;;;;;5053882;28;20032;-79
2023/11/13 03:58:13;;;;;;;21.50;13.18;;;3.30;99.90;;;;;;5054300;28;20055;-79
2023/11/13 04:00:38;;;;;;;21.83;12.90;;;3.40;99.90;;;;;;5016262;28;20256;-79
2023/11/13 04:03:04;;;;;;;21.00;12.50;;;3.50;99.90;;;;;;5051215;28;20032;-80
2023/11/13 04:05:31;;;;;;;20.55;13.43;;;3.40;99.90;;;;;;5061123;28;20025;-78
2023/11/13 04:07:57;;;;;;;20.40;12.48;;;3.40;99.90;;;;;;5044411;28;20175;-79
2023/11/13 04:10:24;;;;;;;19.20;12.43;;;3.40;99.90;;;;;;5023890;28;20261;-80
2023/11/13 04:12:50;;;;;;;17.40;11.63;;;3.40;99.90;;;;;;5044094;28;20025;-78
2023/11/13 04:15:16;;;;;;;20.58;12.32;;;3.40;99.90;;;;;;5048209;28;20057;-80
2023/11/13 04:17:42;;;;;;;19.52;11.98;;;3.40;99.90;;;;;;5044865;28;20513;-80
2023/11/13 04:20:12;;;;;;;18.70;12.07;;;3.40;99.90;;;;;;5051613;28;20025;-81
2023/11/13 04:22:42;;;;;;;18.90;12.20;;;3.40;99.90;;;;;;5050388;28;20060;-80
2023/11/13 04:25:09;;;;;;;18.63;11.90;;;3.40;99.90;;;;;;5047770;28;20041;-80
2023/11/13 04:27:34;;;;;;;20.40;11.95;;;3.40;99.90;;;;;;5054434;28;20040;-79
2023/11/13 04:30:00;;;;;;;18.55;11.77;;;3.50;99.90;;;;;;5062552;28;20033;-80
2023/11/13 04:32:26;;;;;;;18.00;11.23;;;3.50;99.90;;;;;;5054532;28;20025;-81
2023/11/13 04:34:52;;;;;;;17.08;11.55;;;3.50;99.90;;;;;;5046285;28;20025;-79
2023/11/13 04:37:18;;;;;;;17.23;11.07;;;3.60;99.90;;;;;;5055411;28;20521;-78
2023/11/13 04:39:45;;;;;;;19.52;12.02;;;3.60;99.90;;;;;;5048346;28;20037;-79
2023/11/13 04:42:11;;;;;;;18.65;11.55;;;3.50;99.90;;;;;;5045023;28;20044;-78
2023/11/13 04:44:37;;;;;;;19.73;12.18;;;3.50;99.90;;;;;;5048652;28;20033;-78
2023/11/13 04:47:03;;;;;;;19.55;11.75;;;3.50;99.90;;;;;;5048450;28;20033;-79
2023/11/13 04:49:29;;;;;;;19.23;11.90;;;3.40;99.90;;;;;;5040000;28;20037;-79
2023/11/13 04:51:55;;;;;;;18.17;11.60;;;3.40;99.90;;;;;;5046176;28;20061;-79
2023/11/13 04:54:21;;;;;;;19.52;11.25;;;3.40;99.90;;;;;;5048053;28;20463;-79
2023/11/13 04:56:46;;;;;;;22.27;12.40;;;3.40;99.90;;;;;;5045947;28;20110;-78
2023/11/13 04:59:12;;;;;;;20.15;12.27;;;3.40;99.90;;;;;;5049868;28;20056;-79
2023/11/13 05:01:39;;;;;;;22.27;12.32;;;3.40;99.90;;;;;;5051274;28;20056;-78
2023/11/13 05:04:09;;;;;;;19.15;11.65;;;3.40;99.90;;;;;;5045092;28;20101;-79
2023/11/13 05:06:38;;;;;;;22.60;12.10;;;3.40;99.90;;;;;;5040133;28;20037;-81
2023/11/13 05:09:04;;;;;;;21.02;12.35;;;3.40;99.90;;;;;;5041469;28;20116;-79
2023/11/13 05:11:30;;;;;;;20.83;13.10;;;3.40;99.90;;;;;;5044312;28;20044;-79
2023/11/13 05:13:56;;;;;;;23.33;12.73;;;3.40;99.90;;;;;;5053770;28;20032;-78
2023/11/13 05:16:24;;;;;;;19.90;12.48;;;3.50;99.90;;;;;;5051193;28;20036;-80
2023/11/13 05:18:54;;;;;;;22.90;13.30;;;3.50;99.90;;;;;;5051947;28;20041;-81
2023/11/13 05:21:21;;;;;;;23.08;12.98;;;3.60;99.90;;;;;;5041935;28;20391;-80
2023/11/13 05:23:47;;;;;;;19.65;12.15;;;3.60;99.90;;;;;;5038732;28;20413;-79
2023/11/13 05:26:13;;;;;;;20.00;12.35;;;3.50;99.90;;;;;;5043966;28;20025;-79
2023/11/13 05:28:39;;;;;;;21.63;12.95;;;3.50;99.90;;;;;;5045028;28;20274;-79
2023/11/13 05:31:05;;;;;;;23.27;13.20;;;3.60;99.90;;;;;;5045625;28;20397;-79
2023/11/13 05:33:31;;;;;;;22.23;13.25;;;3.60;99.90;;;;;;5033937;28;20030;-78
2023/11/13 05:35:57;;;;;;;22.85;13.30;;;3.60;99.90;;;;;;5035714;28;20090;-79
2023/11/13 05:38:22;;;;;;;22.05;13.77;;;3.50;99.90;;;;;;5043497;28;20124;-80
2023/11/13 05:40:49;;;;;;;24.35;13.70;;;3.50;99.90;;;;;;5050790;28;20237;-81
2023/11/13 05:43:14;;;;;;;23.10;13.25;;;3.50;99.90;;;;;;5042121;28;20056;-80
2023/11/13 05:45:41;;;;;;;21.40;12.43;;;3.60;99.90;;;;;;5057394;28;20686;-79
2023/11/13 05:48:07;;;;;;;22.15;12.38;;;3.60;99.90;;;;;;5049570;28;20031;-81
2023/11/13 05:50:33;;;;;;;19.45;12.27;;;3.60;99.90;;;;;;5045650;28;20035;-78
2023/11/13 05:53:00;;;;;;;19.55;11.35;;;3.60;99.90;;;;;;5044064;28;20030;-81
2023/11/13 05:55:25;;;;;;;17.77;12.10;;;3.70;99.90;;;;;;5053547;28;20441;-80
2023/11/13 05:57:52;;;;;;;20.60;11.98;;;3.70;99.90;;;;;;5055957;28;20029;-81
2023/11/13 06:00:18;;;;;;;18.63;12.07;;;3.70;99.90;;;;;;5047598;28;20112;-81
2023/11/13 06:02:45;;;;;;;18.27;11.00;;;3.70;99.90;;;;;;5055462;28;20034;-81
2023/11/13 06:05:12;;;;;;;19.92;11.20;;;3.70;99.90;;;;;;5050172;28;20022;-83
2023/11/13 06:07:38;;;;;;;17.38;11.10;;;3.70;99.90;;;;;;5055682;28;20044;-81
2023/11/13 06:10:11;;;;;;;16.80;10.85;;;3.80;99.90;;;;;;5048153;28;20411;-83
2023/11/13 06:12:39;;;;;;;17.25;11.05;;;3.80;99.90;;;;;;5060617;28;20044;-80
2023/11/13 06:15:12;;;;;;;17.52;11.00;;;3.80;99.90;;;;;;5043100;28;20025;-83
2023/11/13 06:17:40;;;;;;;15.35;9.50;;;3.80;99.90;;;;;;5031877;28;20041;-83
2023/11/13 06:20:06;;;;;;;15.90;10.00;;;3.80;99.90;;;;;;5048630;28;20040;-81
2023/11/13 06:22:32;;;;;;;14.13;9.50;;;3.80;99.90;;;;;;5050725;28;20517;-81
2023/11/13 06:24:59;;;;;;;15.68;9.07;;;3.80;99.90;;;;;;5046133;28;20027;-80
2023/11/13 06:27:25;;;;;;;14.70;8.55;;;3.80;99.90;;;;;;5027919;28;20033;-81
2023/11/13 06:29:51;;;;;;;14.85;8.25;;;3.70;99.90;;;;;;5052390;28;20027;-83
2023/11/13 06:32:22;;;;;;;16.60;9.07;;;3.70;99.90;;;;;;5047023;28;20047;-82
2023/11/13 06:35:07;;;;;;;14.35;8.82;;;3.70;99.90;;;;;;5042006;28;20037;-81
2023/11/13 06:37:33;;;;;;;13.98;8.70;;;3.60;99.90;;;;;;5046983;28;20048;-81
2023/11/13 06:40:02;;;;;;;14.00;9.05;;;3.60;99.90;;;;;;5049868;28;20037;-82
2023/11/13 06:42:56;;;;;;;13.77;8.75;;;3.70;99.90;;;;;;5055476;28;20037;-79
2023/11/13 06:45:22;;;;;;;16.10;9.18;;;3.70;99.90;;;;;;5014987;28;20049;-81
2023/11/13 06:47:50;;;;;;;13.98;8.85;;;3.70;99.90;;;;;;5038942;28;20041;-84
2023/11/13 06:50:18;;;;;;;14.50;8.40;;;3.70;99.90;;;;;;5055855;28;20020;-83
2023/11/13 06:52:43;;;;;;;13.77;8.05;;;3.80;99.90;;;;;;5041195;28;20056;-81
2023/11/13 06:55:13;;;;;;;12.50;8.13;;;3.80;99.90;;;;;;5046639;28;20025;-82
2023/11/13 06:57:41;;;;;;;15.40;8.52;;;3.80;99.90;;;;;;5052326;28;20673;-83
2023/11/13 07:00:11;;;;;;;17.38;8.52;;;3.80;99.90;;;;;;5047788;28;20040;-82
2023/11/13 07:02:40;;;;;;;16.10;8.95;;;3.70;99.90;;;;;;5033622;28;20040;-80
2023/11/13 07:05:13;;;;;;;13.43;8.13;;;3.80;99.90;;;;;;5046017;28;20033;-82
2023/11/13 07:07:39;;;;;;;12.73;8.23;;;3.80;99.90;;;;;;5047166;28;20034;-84
2023/11/13 07:10:06;;;;;;;15.70;9.43;;;3.80;99.90;;;;;;5056222;28;20028;-81
2023/11/13 07:12:32;;;;;;;18.23;10.15;;;3.90;99.90;;;;;;5051131;28;20033;-83
2023/11/13 07:14:58;;;;;;;17.17;9.27;;;3.90;99.90;;;;;;5059805;28;20304;-81
2023/11/13 07:17:25;;;;;;;15.68;9.45;;;3.90;99.90;;;;;;5053642;28;20037;-83
2023/11/13 07:19:51;;;;;;;15.73;9.68;;;3.90;99.90;;;;;;5047601;28;20042;-81
2023/11/13 07:22:17;;;;;;;15.68;9.65;;;3.90;99.90;;;;;;5055712;28;20030;-81
2023/11/13 07:24:43;;;;;;;13.70;8.80;;;3.90;99.90;;;;;;5052009;28;20079;-83
2023/11/13 07:27:12;;;;;;;14.23;8.45;;;3.90;99.90;;;;;;5054225;28;20132;-83
2023/11/13 07:29:37;;;;;;;15.05;9.18;;;4.00;99.90;;;;;;5051863;28;20447;-81
2023/11/13 07:32:04;;;;;;;16.58;9.43;;;3.90;99.90;;;;;;5054574;28;20025;-82
2023/11/13 07:34:29;;;;;;;14.48;9.27;;;3.90;99.90;;;;;;5051723;28;20577;-82
2023/11/13 07:36:56;;;;;;;17.77;9.75;;;3.90;99.90;;;;;;5039796;28;20029;-81
2023/11/13 07:39:25;;;;;;;13.95;9.25;;;3.90;99.90;;;;;;5053416;28;20059;-80
2023/11/13 07:41:52;;;;;;;15.77;9.80;;;4.00;99.90;;;;;;5036869;28;20618;-81
2023/11/13 07:44:18;;;;;;;15.90;9.55;;;4.00;99.90;;;;;;5038428;28;20025;-81
2023/11/13 07:46:44;;;;;;;14.70;9.43;;;4.00;99.90;;;;;;5047547;28;20021;-83
2023/11/13 07:49:11;;;;;;;15.02;9.50;;;4.00;99.90;;;;;;5043470;28;20118;-81
2023/11/13 07:51:37;;;;;;;14.18;9.60;;;4.10;99.90;;;;;;5049657;28;20541;-81
2023/11/13 07:54:04;;;;;;;13.15;8.63;;;4.10;99.90;;;;;;5045552;28;20045;-81
2023/11/13 07:56:31;;;;;;;13.55;8.77;;;4.10;99.90;;;;;;5045494;28;20036;-82
2023/11/13 07:58:57;;;;;;;15.82;9.55;;;4.10;99.90;;;;;;5050805;28;20090;-82
2023/11/13 08:01:24;;;;;;;20.00;9.00;;;4.10;99.90;;;;;;5054627;28;20037;-82
2023/11/13 08:03:52;;;;;;;16.48;9.30;;;4.10;99.90;;;;;;5040940;28;20036;-80
2023/11/13 08:06:17;;;;;;;15.38;9.07;;;4.00;99.90;;;;;;5052326;28;20551;-80
2023/11/13 08:08:45;;;;;;;14.77;8.40;;;4.10;99.90;;;;;;5043302;28;20116;-81
2023/11/13 08:11:10;;;;;;;15.90;9.50;;;4.00;99.90;;;;;;5051092;28;20115;-81
2023/11/13 08:13:36;;;;;;;15.82;9.27;;;4.10;99.90;;;;;;5046862;28;20373;-79
2023/11/13 08:16:04;;;;;;;16.02;9.48;;;4.10;99.90;;;;;;5051716;28;20036;-84
2023/11/13 08:18:30;;;;;;;15.18;9.35;;;4.10;99.90;;;;;;5048164;28;20552;-80
2023/11/13 08:20:56;;;;;;;12.77;7.75;;;4.10;99.90;;;;;;5052278;28;20028;-80
2023/11/13 08:23:25;;;;;;;15.27;9.13;;;4.10;99.90;;;;;;5044099;28;20033;-80
2023/11/13 08:25:51;;;;;;;15.32;8.65;;;4.20;99.90;;;;;;5027173;28;20397;-82
2023/11/13 08:28:16;;;;;;;11.75;7.75;;;4.20;99.90;;;;;;5040368;28;20033;-81
2023/11/13 08:30:45;;;;;;;11.23;7.50;;;4.20;99.90;;;;;;5038579;28;20026;-80
2023/11/13 08:33:12;;;;;;;11.40;7.40;;;4.20;99.90;;;;;;5047242;28;20112;-79
2023/11/13 08:35:38;;;;;;;12.20;7.80;;;4.20;99.90;;;;;;5048187;28;20446;-80
2023/11/13 08:38:09;;;;;;;11.88;6.97;;;4.20;99.90;;;;;;5051782;28;20039;-79
2023/11/13 08:40:36;;;;;;;12.32;7.25;;;4.20;99.90;;;;;;5053137;28;20029;-81
2023/11/13 08:43:06;;;;;;;11.10;7.05;;;4.20;99.90;;;;;;5051907;28;20044;-79
2023/11/13 08:45:32;;;;;;;11.70;7.13;;;4.20;99.90;;;;;;5043182;28;20480;-79
2023/11/13 08:47:59;;;;;;;14.07;8.32;;;4.20;99.90;;;;;;5031041;28;20784;-80
2023/11/13 08:50:25;;;;;;;10.25;6.53;;;4.20;99.90;;;;;;5044528;28;20465;-79
2023/11/13 08:52:53;;;;;;;11.55;6.93;;;4.20;99.90;;;;;;5045361;28;20045;-82
2023/11/13 08:55:20;;;;;;;11.90;7.25;;;4.20;99.90;;;;;;5049182;28;20028;-82
2023/11/13 08:57:49;;;;;;;11.23;7.18;;;4.20;99.90;;;;;;5048869;28;20108;-80
2023/11/13 09:00:22;;;;;;;9.90;6.28;;;4.30;99.90;;;;;;5028363;28;20061;-80
2023/11/13 09:02:50;;;;;;;12.95;6.55;;;4.40;99.90;;;;;;5046476;28;20684;-79
2023/11/13 09:05:19;;;;;;;11.05;6.75;;;4.30;99.90;;;;;;5037459;28;20045;-80
2023/11/13 09:07:44;;;;;;;10.32;6.38;;;4.40;99.90;;;;;;5046033;28;20029;-79
2023/11/13 09:10:11;;;;;;;9.73;6.72;;;4.40;99.90;;;;;;5068676;28;20100;-80
2023/11/13 09:12:39;;;;;;;9.15;6.30;;;4.40;99.90;;;;;;5063647;28;20588;-79
2023/11/13 09:15:17;;;;;;;10.57;6.18;;;4.50;99.90;;;;;;5065006;28;20033;-80
2023/11/13 09:17:45;;;;;;;8.40;5.57;;;4.50;99.90;;;;;;5062947;28;20025;-80
2023/11/13 09:20:19;;;;;;;9.48;5.20;;;4.50;99.90;;;;;;5057752;28;20055;-78
2023/11/13 09:23:00;;;;;;;8.55;5.20;;;4.50;99.90;;;;;;5051390;28;20068;-78
2023/11/13 09:25:28;;;;;;;7.43;4.97;;;4.50;99.90;;;;;;5063002;28;20450;-79
2023/11/13 09:27:58;;;;;;;8.18;5.25;;;4.60;99.90;;;;;;5061073;28;20024;-78
2023/11/13 09:30:26;;;;;;;9.40;4.95;;;4.70;99.90;;;;;;5047386;28;20024;-78
2023/11/13 09:32:52;;;;;;;8.60;4.68;;;4.80;99.90;;;;;;5050893;28;20040;-80
2023/11/13 09:35:24;;;;;;;6.35;4.70;;;4.80;99.90;;;;;;5049502;28;20029;-79
2023/11/13 09:37:54;;;;;;;7.15;4.53;;;4.80;99.90;;;;;;5055859;28;20033;-80
2023/11/13 09:40:31;;;;;;;7.68;4.78;;;4.80;99.90;;;;;;5044214;28;20025;-81
2023/11/13 09:43:22;;;;;;;10.27;4.32;;;4.80;99.90;;;;;;5040168;28;20124;-87
2023/11/13 09:45:51;;;;;;;6.20;4.07;;;4.80;99.90;;;;;;5040733;28;20020;-80
2023/11/13 09:48:19;;;;;;;6.72;4.50;;;4.90;99.90;;;;;;5036295;28;20033;-77
2023/11/13 09:50:46;;;;;;;6.53;4.15;;;4.90;99.90;;;;;;5042331;28;20274;-79
2023/11/13 09:53:15;;;;;;;6.93;4.00;;;4.90;99.90;;;;;;5040195;28;20391;-81
2023/11/13 09:55:42;;;;;;;7.07;3.90;;;5.00;99.90;;;;;;5039146;28;20033;-79
2023/11/13 09:58:10;;;;;;;5.97;4.10;;;5.00;99.90;;;;;;5048852;28;20032;-83
2023/11/13 10:00:40;;;;;;;8.00;4.00;;;5.00;99.90;;;;;;5038618;28;20021;-79
2023/11/13 10:03:08;;;;;;;4.45;3.40;;;5.00;99.90;;;;;;5043594;28;20397;-81
2023/11/13 10:05:35;;;;;;;8.30;4.07;;;5.10;99.90;;;;;;5041235;28;20021;-81
2023/11/13 10:08:00;;;;;;;6.38;3.88;;;5.10;99.90;;;;;;5028728;28;20152;-80
2023/11/13 10:10:27;;;;;;;5.47;3.70;;;5.20;99.90;;;;;;5046853;28;20056;-79
2023/11/13 10:12:56;;;;;;;5.85;3.90;;;5.30;99.90;;;;;;5032020;28;20632;-80
2023/11/13 10:15:27;;;;;;;5.15;3.22;;;5.40;99.90;;;;;;5035863;28;20060;-80
2023/11/13 10:17:54;;;;;;;6.68;3.50;;;5.40;99.90;;;;;;5051703;28;20037;-79
2023/11/13 10:20:21;;;;;;;5.38;3.38;;;5.50;99.90;;;;;;5044496;28;20030;-78
2023/11/13 10:23:04;;;;;;;6.38;4.03;;;5.60;99.90;;;;;;5044080;28;20029;-79
2023/11/13 10:25:40;;;;;;;4.63;3.22;;;5.60;99.90;;;;;;5047679;28;20079;-81
2023/11/13 10:28:08;;;;;;;5.20;3.05;;;5.60;99.90;;;;;;5038366;28;20040;-79
2023/11/13 10:30:55;;;;;;;4.82;3.53;;;5.70;99.90;;;;;;5042162;28;20035;-82
2023/11/13 10:33:21;;;;;;;5.65;3.70;;;5.80;99.90;;;;;;5045771;28;20108;-82
2023/11/13 10:35:50;;;;;;;4.82;3.40;;;5.90;99.90;;;;;;5043990;28;20413;-80
2023/11/13 10:38:17;;;;;;;4.68;3.30;;;5.90;99.90;;;;;;5042447;28;20037;-81
2023/11/13 10:40:53;;;;;;;4.93;3.15;;;6.00;99.90;;;;;;5033911;28;20115;-81
2023/11/13 10:43:33;;;;;;;5.10;3.40;;;6.00;99.90;;;;;;5036787;28;20033;-81
2023/11/13 10:46:00;;;;;;;7.10;4.10;;;6.10;99.90;;;;;;5038670;28;20044;-81
2023/11/13 10:48:41;;;;;;;7.53;4.50;;;6.10;99.90;;;;;;5042846;28;20041;-82
2023/11/13 10:51:09;;;;;;;8.48;5.72;;;6.10;99.90;;;;;;5063322;28;20743;-80
2023/11/13 10:53:39;;;;;;;6.45;4.65;;;6.20;99.90;;;;;;5040560;28;20071;-80
2023/11/13 10:56:11;;;;;;;9.10;5.10;;;6.20;99.90;;;;;;5045876;28;20060;-79
2023/11/13 10:58:38;;;;;;;8.77;5.25;;;6.30;99.90;;;;;;5042833;28;20033;-80
2023/11/13 11:01:05;;;;;;;9.70;5.75;;;6.30;99.90;;;;;;5043771;28;20098;-79
2023/11/13 11:03:33;;;;;;;10.80;5.20;;;6.40;99.90;;;;;;5045947;28;20100;-78
2023/11/13 11:06:06;;;;;;;10.07;5.38;;;6.50;99.90;;;;;;5041059;28;20041;-79
2023/11/13 11:08:34;;;;;;;14.40;5.90;;;6.60;99.90;;;;;;5043932;28;20128;-80
2023/11/13 11:11:03;;;;;;;8.35;5.18;;;6.70;99.90;;;;;;5043063;28;20033;-79
2023/11/13 11:13:31;;;;;;;8.70;5.30;;;6.80;99.90;;;;;;5027196;28;20897;-81
2023/11/13 11:16:05;;;;;;;18.30;5.53;;;6.80;99.90;;;;;;5042813;28;20040;-81
2023/11/13 11:18:52;;;;;;;12.50;5.45;;;6.90;99.90;;;;;;5041472;28;20037;-79
2023/11/13 11:21:43;;;;;;;9.02;5.65;;;7.00;99.90;;;;;;5046832;28;20029;-80
2023/11/13 11:24:23;;;;;;;6.93;5.43;;;7.10;99.90;;;;;;5043016;28;20046;-80
2023/11/13 11:26:54;;;;;;;13.52;5.45;;;7.10;99.90;;;;;;5030413;28;20034;-81
2023/11/13 11:29:36;;;;;;;10.20;5.60;;;7.20;99.90;;;;;;5043866;28;20084;-82
2023/11/13 11:32:14;;;;;;;12.75;4.82;;;7.20;99.90;;;;;;5044826;28;20021;-81
2023/11/13 11:34:44;;;;;;;15.38;5.25;;;7.20;99.90;;;;;;5046559;28;20021;-82
2023/11/13 11:37:15;;;;;;;9.40;4.22;;;7.20;99.90;;;;;;5024973;28;20527;-82
2023/11/13 11:39:45;;;;;;;5.90;4.22;;;7.30;99.90;;;;;;5044152;28;20061;-85
2023/11/13 11:42:31;;;;;;;15.07;4.82;;;7.30;99.90;;;;;;5044743;28;20025;-82
2023/11/13 11:45:02;;;;;;;5.70;3.92;;;7.30;99.90;;;;;;5056783;28;20043;-81
2023/11/13 11:47:28;;;;;;;6.47;4.32;;;7.30;99.90;;;;;;5046924;28;20033;-81
2023/11/13 11:50:03;;;;;;;11.20;4.18;;;7.40;99.90;;;;;;5043003;28;20032;-81
2023/11/13 11:52:43;;;;;;;6.80;3.60;;;7.40;99.90;;;;;;5020223;28;20057;-82
2023/11/13 11:55:12;;;;;;;45.45;5.78;;;7.50;99.90;;;;;;5026907;28;20092;-82
2023/11/13 11:57:43;;;;;;;7.93;3.38;;;7.50;99.90;;;;;;5037956;28;20116;-82
2023/11/13 12:00:15;;;;;;;8.43;3.63;;;7.50;99.90;;;;;;5043092;28;20055;-82
2023/11/13 12:02:43;;;;;;;7.10;3.38;;;7.60;99.90;;;;;;5044783;28;20128;-81
2023/11/13 12:05:09;;;;;;;4.25;2.60;;;7.50;99.90;;;;;;5049665;28;20018;-81
2023/11/13 12:07:36;;;;;;;39.00;4.25;;;7.50;99.90;;;;;;5034341;28;20052;-80
2023/11/13 12:10:08;;;;;;;5.97;2.40;;;7.50;99.90;;;;;;5045839;28;20079;-82
2023/11/13 12:12:38;;;;;;;8.07;2.28;;;7.50;99.90;;;;;;5047091;28;20042;-81
2023/11/13 12:15:08;;;;;;;8.40;2.50;;;7.60;99.90;;;;;;5053069;28;20025;-83
2023/11/13 12:17:38;;;;;;;4.93;2.22;;;7.60;99.90;;;;;;5034601;28;20033;-82
2023/11/13 12:20:06;;;;;;;7.68;2.10;;;7.60;99.90;;;;;;5035084;28;20029;-83
2023/11/13 12:22:40;;;;;;;5.40;2.30;;;7.60;99.90;;;;;;5035727;28;20116;-82
2023/11/13 12:25:12;;;;;;;3.45;1.90;;;7.60;99.90;;;;;;5033764;28;20068;-83
2023/11/13 12:27:41;;;;;;;6.70;2.22;;;7.60;99.90;;;;;;5037404;28;20107;-83
2023/11/13 12:30:20;;;;;;;5.03;1.88;;;7.70;99.90;;;;;;5028264;28;20029;-83
2023/11/13 12:32:51;;;;;;;1.98;1.48;;;7.70;99.90;;;;;;5049245;28;20021;-81
2023/11/13 12:35:17;;;;;;;3.83;1.83;;;7.70;99.90;;;;;;5053566;28;20025;-80
2023/11/13 12:37:45;;;;;;;5.57;1.70;;;7.70;99.90;;;;;;5046029;28;20033;-81
2023/11/13 12:40:13;;;;;;;5.28;1.40;;;7.70;99.90;;;;;;5047710;28;20020;-80
2023/11/13 12:42:39;;;;;;;3.38;1.33;;;7.80;99.90;;;;;;5048619;28;20052;-81
2023/11/13 12:45:32;;;;;;;2.20;1.23;;;7.70;99.90;;;;;;5051386;28;20083;-80
2023/11/13 12:47:58;;;;;;;4.63;1.40;;;7.70;99.90;;;;;;5047789;28;20048;-83
2023/11/13 12:50:24;;;;;;;3.55;1.50;;;7.70;99.90;;;;;;5033020;28;20029;-81